sensor_id;sensor_type;location;lat;lon;timestamp;temperature;humidity
7325;DHT22;3703;48.016;7.802;2022-11-20T00:01:33;7.30;99.90
7325;DHT22;3703;48.016;7.802;2022-11-20T00:04:22;7.40;99.90
7325;DHT22;3703;48.016;7.802;2022-11-20T00:07:10;7.30;99.90
7325;DHT22;3703;48.016;7.802;2022-11-20T00:09:57;7.30;99.90
7325;DHT22;3703;48.016;7.802;2022-11-20T00:12:45;7.20;99.90
7325;DHT22;3703;48.016;7.802;2022-11-20T00:15:32;7.20;99.90
7325;DHT22;3703;48.016;7.802;2022-11-20T00:18:20;7.20;99.90
7325;DHT22;3703;48.016;7.802;2022-11-20T00:21:11;7.20;99.90
7325;DHT22;3703;48.016;7.802;2022-11-20T00:24:00;7.20;99.90
7325;DHT22;3703;48.016;7.802;2022-11-20T00:26:47;7.20;99.90
7325;DHT22;3703;48.016;7.802;2022-11-20T00:29:35;7.20;99.90
7325;DHT22;3703;48.016;7.802;2022-11-20T00:32:22;7.30;99.90
7325;DHT22;3703;48.016;7.802;2022-11-20T00:35:10;7.10;99.90
7325;DHT22;3703;48.016;7.802;2022-11-20T00:37:59;7.20;99.90
7325;DHT22;3703;48.016;7.802;2022-11-20T00:40:46;7.10;99.90
7325;DHT22;3703;48.016;7.802;2022-11-20T00:43:42;7.10;99.90
7325;DHT22;3703;48.016;7.802;2022-11-20T00:46:30;7.20;99.90
7325;DHT22;3703;48.016;7.802;2022-11-20T00:49:18;7.10;99.90
7325;DHT22;3703;48.016;7.802;2022-11-20T00:52:05;7.10;99.90
7325;DHT22;3703;48.016;7.802;2022-11-20T00:54:54;7.20;99.90
7325;DHT22;3703;48.016;7.802;2022-11-20T00:57:42;7.10;99.90
7325;DHT22;3703;48.016;7.802;2022-11-20T01:00:29;7.00;99.90
7325;DHT22;3703;48.016;7.802;2022-11-20T01:03:17;7.10;99.90
7325;DHT22;3703;48.016;7.802;2022-11-20T01:06:06;7.00;99.90
7325;DHT22;3703;48.016;7.802;2022-11-20T01:08:56;7.20;99.90
7325;DHT22;3703;48.016;7.802;2022-11-20T01:11:46;6.90;99.90
7325;DHT22;3703;48.016;7.802;2022-11-20T01:14:34;7.00;99.90
7325;DHT22;3703;48.016;7.802;2022-11-20T01:17:21;7.10;99.90
7325;DHT22;3703;48.016;7.802;2022-11-20T01:20:10;6.60;99.90
7325;DHT22;3703;48.016;7.802;2022-11-20T01:22:58;7.10;99.90
7325;DHT22;3703;48.016;7.802;2022-11-20T01:25:45;7.10;99.90
7325;DHT22;3703;48.016;7.802;2022-11-20T01:28:34;7.00;99.90
7325;DHT22;3703;48.016;7.802;2022-11-20T01:31:24;7.50;99.90
7325;DHT22;3703;48.016;7.802;2022-11-20T01:34:14;7.50;99.90
7325;DHT22;3703;48.016;7.802;2022-11-20T01:37:02;6.70;99.90
7325;DHT22;3703;48.016;7.802;2022-11-20T01:39:50;6.90;99.90
7325;DHT22;3703;48.016;7.802;2022-11-20T01:46:02;7.10;99.90
7325;DHT22;3703;48.016;7.802;2022-11-20T01:48:56;7.00;99.90
7325;DHT22;3703;48.016;7.802;2022-11-20T01:51:49;7.50;99.90
7325;DHT22;3703;48.016;7.802;2022-11-20T01:54:42;6.80;99.90
7325;DHT22;3703;48.016;7.802;2022-11-20T01:57:34;6.90;99.90
7325;DHT22;3703;48.016;7.802;2022-11-20T02:00:22;7.40;99.90
7325;DHT22;3703;48.016;7.802;2022-11-20T02:03:13;7.20;99.90
7325;DHT22;3703;48.016;7.802;2022-11-20T02:06:07;7.40;99.90
7325;DHT22;3703;48.016;7.802;2022-11-20T02:08:59;6.80;99.90
7325;DHT22;3703;48.016;7.802;2022-11-20T02:11:46;7.20;99.90
7325;DHT22;3703;48.016;7.802;2022-11-20T02:14:34;7.00;99.90
7325;DHT22;3703;48.016;7.802;2022-11-20T02:17:20;7.00;99.90
7325;DHT22;3703;48.016;7.802;2022-11-20T02:20:10;7.10;99.90
7325;DHT22;3703;48.016;7.802;2022-11-20T02:23:02;7.20;99.90
7325;DHT22;3703;48.016;7.802;2022-11-20T02:25:54;6.90;99.90
7325;DHT22;3703;48.016;7.802;2022-11-20T02:28:43;7.20;99.90
7325;DHT22;3703;48.016;7.802;2022-11-20T02:31:36;7.20;99.90
7325;DHT22;3703;48.016;7.802;2022-11-20T02:34:24;6.50;99.90
7325;DHT22;3703;48.016;7.802;2022-11-20T02:37:12;7.00;99.90
7325;DHT22;3703;48.016;7.802;2022-11-20T02:40:00;6.80;99.90
7325;DHT22;3703;48.016;7.802;2022-11-20T02:42:51;7.20;99.90
7325;DHT22;3703;48.016;7.802;2022-11-20T02:45:39;7.10;99.90
7325;DHT22;3703;48.016;7.802;2022-11-20T02:48:26;6.90;99.90
7325;DHT22;3703;48.016;7.802;2022-11-20T02:51:14;7.10;99.90
7325;DHT22;3703;48.016;7.802;2022-11-20T02:54:02;6.80;99.90
7325;DHT22;3703;48.016;7.802;2022-11-20T02:56:50;6.90;99.90
7325;DHT22;3703;48.016;7.802;2022-11-20T02:59:39;7.40;99.90
7325;DHT22;3703;48.016;7.802;2022-11-20T03:02:29;7.20;99.90
7325;DHT22;3703;48.016;7.802;2022-11-20T03:05:17;6.90;99.90
7325;DHT22;3703;48.016;7.802;2022-11-20T03:08:04;7.00;99.90
7325;DHT22;3703;48.016;7.802;2022-11-20T03:10:52;6.90;99.90
7325;DHT22;3703;48.016;7.802;2022-11-20T03:13:39;7.20;99.90
7325;DHT22;3703;48.016;7.802;2022-11-20T03:16:30;7.10;99.90
7325;DHT22;3703;48.016;7.802;2022-11-20T03:19:18;7.20;99.90
7325;DHT22;3703;48.016;7.802;2022-11-20T03:22:05;6.80;99.90
7325;DHT22;3703;48.016;7.802;2022-11-20T03:24:53;6.90;99.90
7325;DHT22;3703;48.016;7.802;2022-11-20T03:27:40;6.80;99.90
7325;DHT22;3703;48.016;7.802;2022-11-20T03:30:28;7.00;99.90
7325;DHT22;3703;48.016;7.802;2022-11-20T03:33:17;7.10;99.90
7325;DHT22;3703;48.016;7.802;2022-11-20T03:36:06;6.60;99.90
7325;DHT22;3703;48.016;7.802;2022-11-20T03:38:55;7.00;99.90
7325;DHT22;3703;48.016;7.802;2022-11-20T03:41:43;7.00;99.90
7325;DHT22;3703;48.016;7.802;2022-11-20T03:44:31;7.30;99.90
7325;DHT22;3703;48.016;7.802;2022-11-20T03:47:18;7.20;99.90
7325;DHT22;3703;48.016;7.802;2022-11-20T03:50:08;6.90;99.90
7325;DHT22;3703;48.016;7.802;2022-11-20T03:52:56;7.00;99.90
7325;DHT22;3703;48.016;7.802;2022-11-20T03:55:44;7.20;99.90
7325;DHT22;3703;48.016;7.802;2022-11-20T03:58:33;7.40;99.90
7325;DHT22;3703;48.016;7.802;2022-11-20T04:01:22;7.20;99.90
7325;DHT22;3703;48.016;7.802;2022-11-20T04:04:11;7.10;99.90
7325;DHT22;3703;48.016;7.802;2022-11-20T04:06:59;7.10;99.90
7325;DHT22;3703;48.016;7.802;2022-11-20T04:09:47;7.20;99.90
7325;DHT22;3703;48.016;7.802;2022-11-20T04:12:35;7.30;99.90
7325;DHT22;3703;48.016;7.802;2022-11-20T04:15:22;7.40;99.90
7325;DHT22;3703;48.016;7.802;2022-11-20T04:18:10;7.30;99.90
7325;DHT22;3703;48.016;7.802;2022-11-20T04:20:57;7.20;99.90
7325;DHT22;3703;48.016;7.802;2022-11-20T04:23:47;6.90;99.90
7325;DHT22;3703;48.016;7.802;2022-11-20T04:26:34;7.40;99.90
7325;DHT22;3703;48.016;7.802;2022-11-20T04:29:22;7.00;99.90
7325;DHT22;3703;48.016;7.802;2022-11-20T04:32:10;7.20;99.90
7325;DHT22;3703;48.016;7.802;2022-11-20T04:37:45;7.10;99.90
7325;DHT22;3703;48.016;7.802;2022-11-20T04:40:34;7.60;99.90
7325;DHT22;3703;48.016;7.802;2022-11-20T04:43:21;7.40;99.90
7325;DHT22;3703;48.016;7.802;2022-11-20T04:46:09;7.10;99.90
7325;DHT22;3703;48.016;7.802;2022-11-20T04:48:57;7.40;99.90
7325;DHT22;3703;48.016;7.802;2022-11-20T04:54:32;7.40;99.90
7325;DHT22;3703;48.016;7.802;2022-11-20T04:57:21;7.00;99.90
7325;DHT22;3703;48.016;7.802;2022-11-20T05:00:10;7.00;99.90
7325;DHT22;3703;48.016;7.802;2022-11-20T05:05:46;6.70;99.90
7325;DHT22;3703;48.016;7.802;2022-11-20T05:08:34;7.00;99.90
7325;DHT22;3703;48.016;7.802;2022-11-20T05:11:22;6.80;99.90
7325;DHT22;3703;48.016;7.802;2022-11-20T05:14:10;6.90;99.90
7325;DHT22;3703;48.016;7.802;2022-11-20T05:22:34;7.00;99.90
7325;DHT22;3703;48.016;7.802;2022-11-20T05:25:21;7.10;99.90
7325;DHT22;3703;48.016;7.802;2022-11-20T05:31:04;7.00;99.90
7325;DHT22;3703;48.016;7.802;2022-11-20T05:36:40;7.30;99.90
7325;DHT22;3703;48.016;7.802;2022-11-20T05:39:28;7.00;99.90
7325;DHT22;3703;48.016;7.802;2022-11-20T05:42:16;7.10;99.90
7325;DHT22;3703;48.016;7.802;2022-11-20T05:45:18;6.70;99.90
7325;DHT22;3703;48.016;7.802;2022-11-20T05:48:07;6.90;99.90
7325;DHT22;3703;48.016;7.802;2022-11-20T05:50:56;7.30;99.90
7325;DHT22;3703;48.016;7.802;2022-11-20T05:53:45;7.10;99.90
7325;DHT22;3703;48.016;7.802;2022-11-20T06:02:08;7.20;99.90
7325;DHT22;3703;48.016;7.802;2022-11-20T06:04:57;7.00;99.90
7325;DHT22;3703;48.016;7.802;2022-11-20T06:07:45;6.90;99.90
7325;DHT22;3703;48.016;7.802;2022-11-20T06:10:33;7.00;99.90
7325;DHT22;3703;48.016;7.802;2022-11-20T06:21:47;7.40;99.90
7325;DHT22;3703;48.016;7.802;2022-11-20T06:24:35;7.40;99.90
7325;DHT22;3703;48.016;7.802;2022-11-20T06:27:23;6.90;99.90
7325;DHT22;3703;48.016;7.802;2022-11-20T06:30:11;7.20;99.90
7325;DHT22;3703;48.016;7.802;2022-11-20T06:32:59;6.70;99.90
7325;DHT22;3703;48.016;7.802;2022-11-20T06:35:47;7.00;99.90
7325;DHT22;3703;48.016;7.802;2022-11-20T06:38:36;7.10;99.90
7325;DHT22;3703;48.016;7.802;2022-11-20T06:41:24;6.90;99.90
7325;DHT22;3703;48.016;7.802;2022-11-20T06:44:12;7.40;99.90
7325;DHT22;3703;48.016;7.802;2022-11-20T06:46:59;7.10;99.90
7325;DHT22;3703;48.016;7.802;2022-11-20T06:49:47;6.90;99.90
7325;DHT22;3703;48.016;7.802;2022-11-20T06:52:34;6.90;99.90
7325;DHT22;3703;48.016;7.802;2022-11-20T06:55:23;6.80;99.90
7325;DHT22;3703;48.016;7.802;2022-11-20T06:58:11;6.80;99.90
7325;DHT22;3703;48.016;7.802;2022-11-20T07:00:59;7.20;99.90
7325;DHT22;3703;48.016;7.802;2022-11-20T07:03:48;7.50;99.90
7325;DHT22;3703;48.016;7.802;2022-11-20T07:06:36;7.30;99.90
7325;DHT22;3703;48.016;7.802;2022-11-20T07:12:13;7.30;99.90
7325;DHT22;3703;48.016;7.802;2022-11-20T07:15:01;6.70;99.90
7325;DHT22;3703;48.016;7.802;2022-11-20T07:17:48;6.90;99.90
7325;DHT22;3703;48.016;7.802;2022-11-20T07:20:36;7.00;99.90
7325;DHT22;3703;48.016;7.802;2022-11-20T07:23:24;7.00;99.90
7325;DHT22;3703;48.016;7.802;2022-11-20T07:26:11;6.70;99.90
7325;DHT22;3703;48.016;7.802;2022-11-20T07:29:00;6.90;99.90
7325;DHT22;3703;48.016;7.802;2022-11-20T07:31:48;6.80;99.90
7325;DHT22;3703;48.016;7.802;2022-11-20T07:34:35;6.70;99.90
7325;DHT22;3703;48.016;7.802;2022-11-20T07:37:23;7.00;99.90
7325;DHT22;3703;48.016;7.802;2022-11-20T07:40:11;7.10;99.90
7325;DHT22;3703;48.016;7.802;2022-11-20T07:42:59;7.20;99.90
7325;DHT22;3703;48.016;7.802;2022-11-20T07:45:48;7.40;99.90
7325;DHT22;3703;48.016;7.802;2022-11-20T07:48:35;6.90;99.90
7325;DHT22;3703;48.016;7.802;2022-11-20T07:51:23;7.40;99.90
7325;DHT22;3703;48.016;7.802;2022-11-20T07:54:11;7.00;99.90
7325;DHT22;3703;48.016;7.802;2022-11-20T07:56:59;7.20;99.90
7325;DHT22;3703;48.016;7.802;2022-11-20T07:59:47;7.30;99.90
7325;DHT22;3703;48.016;7.802;2022-11-20T08:02:36;7.30;99.90
7325;DHT22;3703;48.016;7.802;2022-11-20T08:05:25;7.00;99.90
7325;DHT22;3703;48.016;7.802;2022-11-20T08:08:13;6.70;99.90
7325;DHT22;3703;48.016;7.802;2022-11-20T08:11:01;7.00;99.90
7325;DHT22;3703;48.016;7.802;2022-11-20T08:14:02;6.90;99.90
7325;DHT22;3703;48.016;7.802;2022-11-20T08:16:58;7.00;99.90
7325;DHT22;3703;48.016;7.802;2022-11-20T08:19:48;6.90;99.90
7325;DHT22;3703;48.016;7.802;2022-11-20T08:22:35;6.80;99.90
7325;DHT22;3703;48.016;7.802;2022-11-20T08:25:23;7.30;99.90
7325;DHT22;3703;48.016;7.802;2022-11-20T08:28:10;7.10;99.90
7325;DHT22;3703;48.016;7.802;2022-11-20T08:30:59;6.80;99.90
7325;DHT22;3703;48.016;7.802;2022-11-20T08:33:47;7.20;99.90
7325;DHT22;3703;48.016;7.802;2022-11-20T08:36:36;7.10;99.90
7325;DHT22;3703;48.016;7.802;2022-11-20T08:39:24;6.80;99.90
7325;DHT22;3703;48.016;7.802;2022-11-20T08:42:12;7.10;99.90
7325;DHT22;3703;48.016;7.802;2022-11-20T08:44:59;7.00;99.90
7325;DHT22;3703;48.016;7.802;2022-11-20T08:47:47;7.00;99.90
7325;DHT22;3703;48.016;7.802;2022-11-20T08:50:35;7.50;99.90
7325;DHT22;3703;48.016;7.802;2022-11-20T08:53:24;6.90;99.90
7325;DHT22;3703;48.016;7.802;2022-11-20T08:56:12;7.30;99.90
7325;DHT22;3703;48.016;7.802;2022-11-20T08:59:00;7.60;99.90
7325;DHT22;3703;48.016;7.802;2022-11-20T09:01:48;7.60;99.90
7325;DHT22;3703;48.016;7.802;2022-11-20T09:04:36;6.70;99.90
7325;DHT22;3703;48.016;7.802;2022-11-20T09:07:23;6.90;99.90
7325;DHT22;3703;48.016;7.802;2022-11-20T09:10:12;7.70;99.90
7325;DHT22;3703;48.016;7.802;2022-11-20T09:13:00;7.00;99.90
7325;DHT22;3703;48.016;7.802;2022-11-20T09:15:53;7.40;99.90
7325;DHT22;3703;48.016;7.802;2022-11-20T09:18:42;7.10;99.90
7325;DHT22;3703;48.016;7.802;2022-11-20T09:21:29;7.10;99.90
7325;DHT22;3703;48.016;7.802;2022-11-20T09:24:17;7.10;99.90
7325;DHT22;3703;48.016;7.802;2022-11-20T09:27:07;7.70;99.90
7325;DHT22;3703;48.016;7.802;2022-11-20T12:58:41;11.10;99.90
7325;DHT22;3703;48.016;7.802;2022-11-20T13:01:39;10.10;99.90
7325;DHT22;3703;48.016;7.802;2022-11-20T13:04:44;9.60;99.90
7325;DHT22;3703;48.016;7.802;2022-11-20T13:07:40;9.50;99.90
7325;DHT22;3703;48.016;7.802;2022-11-20T13:10:44;10.00;99.90
7325;DHT22;3703;48.016;7.802;2022-11-20T13:13:44;9.80;99.90
7325;DHT22;3703;48.016;7.802;2022-11-20T13:16:41;10.30;99.90
7325;DHT22;3703;48.016;7.802;2022-11-20T13:19:33;10.20;99.90
7325;DHT22;3703;48.016;7.802;2022-11-20T13:22:25;10.80;99.90
7325;DHT22;3703;48.016;7.802;2022-11-20T13:25:23;9.90;99.90
7325;DHT22;3703;48.016;7.802;2022-11-20T13:28:28;10.00;99.90
7325;DHT22;3703;48.016;7.802;2022-11-20T13:31:31;10.50;99.90
7325;DHT22;3703;48.016;7.802;2022-11-20T13:34:27;10.30;99.90
7325;DHT22;3703;48.016;7.802;2022-11-20T13:37:25;10.30;99.90
7325;DHT22;3703;48.016;7.802;2022-11-20T13:40:21;10.10;99.90
7325;DHT22;3703;48.016;7.802;2022-11-20T13:43:22;10.80;99.90
7325;DHT22;3703;48.016;7.802;2022-11-20T13:46:23;10.30;99.90
7325;DHT22;3703;48.016;7.802;2022-11-20T13:49:32;10.70;99.90
7325;DHT22;3703;48.016;7.802;2022-11-20T13:56:18;10.70;99.90
7325;DHT22;3703;48.016;7.802;2022-11-20T13:59:24;10.80;99.90
7325;DHT22;3703;48.016;7.802;2022-11-20T14:02:22;10.70;99.90
7325;DHT22;3703;48.016;7.802;2022-11-20T14:05:19;11.10;99.90
7325;DHT22;3703;48.016;7.802;2022-11-20T14:08:22;10.30;99.90
7325;DHT22;3703;48.016;7.802;2022-11-20T14:11:15;10.00;99.90
7325;DHT22;3703;48.016;7.802;2022-11-20T14:14:13;10.00;99.90
7325;DHT22;3703;48.016;7.802;2022-11-20T14:17:21;9.70;99.90
7325;DHT22;3703;48.016;7.802;2022-11-20T14:20:14;9.60;99.90
7325;DHT22;3703;48.016;7.802;2022-11-20T14:28:48;9.30;99.90
7325;DHT22;3703;48.016;7.802;2022-11-20T14:34:28;8.90;99.90
7325;DHT22;3703;48.016;7.802;2022-11-20T14:37:20;8.80;99.90
7325;DHT22;3703;48.016;7.802;2022-11-20T14:40:24;8.80;99.90
7325;DHT22;3703;48.016;7.802;2022-11-20T14:43:20;8.70;99.90
7325;DHT22;3703;48.016;7.802;2022-11-20T14:49:01;8.60;99.90
7325;DHT22;3703;48.016;7.802;2022-11-20T14:52:00;8.70;99.90
7325;DHT22;3703;48.016;7.802;2022-11-20T14:54:50;8.70;99.90
7325;DHT22;3703;48.016;7.802;2022-11-20T15:03:15;8.70;99.90
7325;DHT22;3703;48.016;7.802;2022-11-20T15:06:04;8.80;99.90
7325;DHT22;3703;48.016;7.802;2022-11-20T15:08:53;8.70;99.90
7325;DHT22;3703;48.016;7.802;2022-11-20T15:11:55;8.70;99.90
7325;DHT22;3703;48.016;7.802;2022-11-20T15:14:58;8.60;99.90
7325;DHT22;3703;48.016;7.802;2022-11-20T15:23:27;8.50;99.90
7325;DHT22;3703;48.016;7.802;2022-11-20T15:26:22;8.50;99.90
7325;DHT22;3703;48.016;7.802;2022-11-20T15:29:14;8.50;99.90
7325;DHT22;3703;48.016;7.802;2022-11-20T15:32:05;8.50;99.90
7325;DHT22;3703;48.016;7.802;2022-11-20T15:34:53;8.50;99.90
7325;DHT22;3703;48.016;7.802;2022-11-20T15:37:41;10.10;99.90
7325;DHT22;3703;48.016;7.802;2022-11-20T15:43:18;8.50;99.90
7325;DHT22;3703;48.016;7.802;2022-11-20T15:46:09;8.40;99.90
7325;DHT22;3703;48.016;7.802;2022-11-20T15:48:59;8.40;99.90
7325;DHT22;3703;48.016;7.802;2022-11-20T15:51:49;8.40;99.90
7325;DHT22;3703;48.016;7.802;2022-11-20T16:00:24;8.40;99.90
7325;DHT22;3703;48.016;7.802;2022-11-20T16:09:04;8.50;99.90
7325;DHT22;3703;48.016;7.802;2022-11-20T16:14:46;8.40;99.90
7325;DHT22;3703;48.016;7.802;2022-11-20T16:17:52;8.20;99.90
7325;DHT22;3703;48.016;7.802;2022-11-20T16:29:05;8.30;99.90
7325;DHT22;3703;48.016;7.802;2022-11-20T16:34:43;8.30;99.90
7325;DHT22;3703;48.016;7.802;2022-11-20T16:43:13;8.30;99.90
7325;DHT22;3703;48.016;7.802;2022-11-20T16:48:53;8.30;99.90
7325;DHT22;3703;48.016;7.802;2022-11-20T17:25:33;8.20;99.90
7325;DHT22;3703;48.016;7.802;2022-11-20T17:31:13;8.20;99.90
7325;DHT22;3703;48.016;7.802;2022-11-20T17:53:48;8.10;99.90
7325;DHT22;3703;48.016;7.802;2022-11-20T18:11:19;6.90;99.90
7325;DHT22;3703;48.016;7.802;2022-11-20T18:14:11;7.20;99.90
7325;DHT22;3703;48.016;7.802;2022-11-20T18:17:18;6.60;99.90
7325;DHT22;3703;48.016;7.802;2022-11-20T20:03:39;6.00;99.90
7325;DHT22;3703;48.016;7.802;2022-11-20T20:47:04;5.80;99.90
7325;DHT22;3703;48.016;7.802;2022-11-20T20:52:41;5.80;99.90
7325;DHT22;3703;48.016;7.802;2022-11-20T20:58:21;5.70;99.90
7325;DHT22;3703;48.016;7.802;2022-11-20T21:01:17;5.70;99.90
7325;DHT22;3703;48.016;7.802;2022-11-20T21:09:43;5.80;99.90
7325;DHT22;3703;48.016;7.802;2022-11-20T21:20:55;5.90;99.90
7325;DHT22;3703;48.016;7.802;2022-11-20T21:24:05;5.90;99.90
7325;DHT22;3703;48.016;7.802;2022-11-20T22:28:18;6.60;99.90
7325;DHT22;3703;48.016;7.802;2022-11-20T22:31:16;6.50;99.90
7325;DHT22;3703;48.016;7.802;2022-11-20T22:42:37;6.30;99.90
7325;DHT22;3703;48.016;7.802;2022-11-20T22:45:24;6.60;99.90
7325;DHT22;3703;48.016;7.802;2022-11-20T22:51:04;6.40;99.90
7325;DHT22;3703;48.016;7.802;2022-11-20T23:10:56;6.50;99.90
7325;DHT22;3703;48.016;7.802;2022-11-20T23:14:00;6.50;99.90
7325;DHT22;3703;48.016;7.802;2022-11-20T23:22:43;6.50;99.90
7325;DHT22;3703;48.016;7.802;2022-11-20T23:31:13;6.60;99.90
7325;DHT22;3703;48.016;7.802;2022-11-20T23:45:49;6.60;99.90
7325;DHT22;3703;48.016;7.802;2022-11-20T23:48:38;6.70;99.90
7325;DHT22;3703;48.016;7.802;2022-11-20T23:57:03;7.10;99.90
